Terminal Aerodrome Forecast
Issued by NWS

Home | Current Version | Previous Version | Text Only | Print | Product List | Glossary On
Versions: 1 2 3 4 5 6 7 8 9 10 11 12 13 14 15 16 17 18 19 20 21 22 23 24 25 26 27 28 29 30 31 32
943
FTUS44 KLIX 231430 AAB
TAFHDC
TAF AMD
KHDC 231430Z 2315/2412 34010G20KT 2SM BR OVC007
     FM231600 34012KT P6SM BKN025
     FM232000 33012KT P6SM SCT080
     FM240100 33008KT P6SM SCT110
     FM240400 33004KT P6SM FEW200=

USA.gov is the U.S. government's official web portal to all federal, state and local government web resources and services.